Terminal Aerodrome Forecast
Issued by NWS Albany, NY

Home | Current Version | Previous Version | Text Only | Print | Product List | Glossary On
Versions: 1 2 3 4 5 6 7 8 9 10 11 12 13 14
000
FTUS41 KALY 231700
TAFALB
TAF
KALB 231736Z 2318/2418 19010KT P6SM SCT050
     FM232000 27008KT P6SM VCSH BKN050 BKN100
      TEMPO 2321/2322 VRB01G25KT 3SM -TSRA BR SCT020 OVC035CB
     FM240200 31006KT P6SM BKN050 BKN100
     FM240900 33003KT 6SM BR SCT050
     FM241300 33007KT P6SM SCT050=

USA.gov is the U.S. government's official web portal to all federal, state and local government web resources and services.